Time;durP1;ratioP1;P1;durP2;ratioP2;P2;SDS_P1;SDS_P2;PMS_P1;PMS_P2;Temp;Humidity;BMP_temperature;BMP_pressure;BME280_temperature;BME280_humidity;BME280_pressure;Samples;Min_cycle;Max_cycle;Signal;HPM_P1;HPM_P2
2023/07/12 00:00:43;;;;;;;6.63;4.00;;;;;;;20.43;95.49;95388.44;5026631;28;20179;-79
2023/07/12 00:03:09;;;;;;;4.65;4.22;;;;;;;20.26;95.08;95382.84;5011696;28;20194;-80
2023/07/12 00:05:34;;;;;;;6.18;4.13;;;;;;;20.18;95.23;95378.63;5011199;28;20232;-80
2023/07/12 00:08:00;;;;;;;5.03;4.30;;;;;;;20.36;95.22;95388.47;4995468;28;20198;-80
2023/07/12 00:10:28;;;;;;;7.13;4.30;;;;;;;20.34;94.81;95386.03;5013518;28;20266;-80
2023/07/12 00:12:54;;;;;;;7.30;4.45;;;;;;;20.47;93.93;95379.09;5008661;28;20198;-79
2023/07/12 00:15:25;;;;;;;7.43;4.45;;;;;;;20.44;94.27;95377.69;4995032;28;20668;-80
2023/07/12 00:17:51;;;;;;;6.13;4.32;;;;;;;20.48;93.90;95376.22;5011837;28;20234;-80
2023/07/12 00:20:22;;;;;;;5.80;4.07;;;;;;;20.56;93.21;95375.97;5011696;28;20214;-81
2023/07/12 00:22:48;;;;;;;6.22;4.20;;;;;;;20.60;92.56;95363.19;5011537;28;20188;-78
2023/07/12 00:25:14;;;;;;;7.35;4.45;;;;;;;20.68;91.50;95365.56;5009463;28;20668;-79
2023/07/12 00:27:40;;;;;;;5.78;4.53;;;;;;;20.74;91.70;95374.44;4995299;28;20193;-79
2023/07/12 00:30:12;;;;;;;6.88;4.57;;;;;;;20.67;91.18;95384.22;4994976;28;20261;-80
2023/07/12 00:32:37;;;;;;;7.05;4.65;;;;;;;20.65;92.09;95376.53;4994399;28;20187;-79
2023/07/12 00:35:03;;;;;;;6.72;4.43;;;;;;;20.63;91.78;95384.66;5010798;28;20190;-80
2023/07/12 00:37:28;;;;;;;5.97;3.78;;;;;;;20.53;92.92;95371.13;5011977;28;20229;-80
2023/07/12 00:39:54;;;;;;;7.80;4.40;;;;;;;20.53;92.52;95352.69;5012110;28;20314;-79
2023/07/12 00:42:23;;;;;;;5.35;3.90;;;;;;;20.51;92.28;95357.38;5012143;28;20199;-80
2023/07/12 00:44:51;;;;;;;4.97;4.40;;;;;;;20.47;92.27;95350.88;5010578;28;20230;-79
2023/07/12 00:47:17;;;;;;;5.28;4.15;;;;;;;20.46;92.31;95341.34;5011665;28;20199;-79
2023/07/12 00:49:46;;;;;;;5.25;4.10;;;;;;;20.48;92.86;95333.22;4995368;28;20696;-80
2023/07/12 00:52:12;;;;;;;5.88;3.85;;;;;;;20.52;92.83;95340.50;5011647;28;20199;-80
2023/07/12 00:54:59;;;;;;;5.68;4.13;;;;;;;20.49;92.15;95340.91;5010318;28;20191;-80
2023/07/12 00:57:26;;;;;;;7.32;4.10;;;;;;;20.41;93.75;95349.09;4988854;28;20710;-80
2023/07/12 00:59:55;;;;;;;6.28;4.05;;;;;;;20.58;91.76;95352.00;4995298;28;20219;-81
2023/07/12 01:02:24;;;;;;;5.45;4.38;;;;;;;20.60;91.82;95334.97;5010979;28;20190;-80
2023/07/12 01:04:50;;;;;;;6.43;3.75;;;;;;;20.68;91.56;95322.53;4991455;28;20195;-80
2023/07/12 01:07:17;;;;;;;6.65;4.10;;;;;;;20.61;91.34;95306.75;5009131;28;20276;-79
2023/07/12 01:09:43;;;;;;;8.48;4.55;;;;;;;20.59;92.34;95303.53;4989400;28;20211;-79
2023/07/12 01:12:09;;;;;;;5.85;3.80;;;;;;;20.51;92.74;95291.41;5011051;28;20516;-80
2023/07/12 01:14:35;;;;;;;6.57;4.10;;;;;;;20.51;93.14;95291.41;5014623;28;20663;-79
2023/07/12 01:17:03;;;;;;;7.43;4.30;;;;;;;20.41;93.44;95285.78;5015025;28;20274;-81
2023/07/12 01:19:29;;;;;;;5.85;4.18;;;;;;;20.50;93.58;95281.09;5014970;28;20274;-81
2023/07/12 01:21:58;;;;;;;4.57;4.18;;;;;;;20.35;94.93;95276.91;5014584;28;20183;-79
2023/07/12 01:24:25;;;;;;;5.93;4.15;;;;;;;20.34;95.29;95238.38;5013954;28;20215;-80
2023/07/12 01:26:53;;;;;;;8.13;4.60;;;;;;;20.37;94.53;95160.66;5013370;28;20195;-79
2023/07/12 01:29:20;;;;;;;4.60;4.03;;;;;;;20.30;95.21;95178.34;4994957;28;20221;-79
2023/07/12 01:31:45;;;;;;;7.30;4.68;;;;;;;20.30;95.42;95212.63;5012558;28;20696;-79
2023/07/12 01:34:11;;;;;;;6.88;5.10;;;;;;;20.32;95.49;95197.44;4994668;28;20228;-80
2023/07/12 01:36:37;;;;;;;7.10;4.35;;;;;;;20.37;94.61;95179.09;5014315;28;20210;-80
2023/07/12 01:39:04;;;;;;;5.60;3.95;;;;;;;20.22;94.45;95205.81;4997588;28;20187;-79
2023/07/12 01:41:29;;;;;;;6.07;4.07;;;;;;;20.33;94.30;95201.69;4997652;28;20320;-80
2023/07/12 01:43:55;;;;;;;4.85;3.83;;;;;;;20.36;94.00;95211.78;5013887;28;20191;-80
2023/07/12 01:46:20;;;;;;;6.10;3.90;;;;;;;20.35;94.38;95224.16;5014580;28;20206;-81
2023/07/12 01:48:46;;;;;;;4.82;3.60;;;;;;;20.35;94.28;95239.97;5014743;28;20211;-81
2023/07/12 01:51:13;;;;;;;5.97;3.25;;;;;;;20.38;93.11;95225.56;5015708;28;20194;-80
2023/07/12 01:53:38;;;;;;;9.00;4.00;;;;;;;20.17;94.12;95225.94;4997979;28;20208;-80
2023/07/12 01:56:04;;;;;;;9.68;4.28;;;;;;;20.25;93.79;95225.69;5013952;28;20203;-80
2023/07/12 01:58:29;;;;;;;5.75;3.90;;;;;;;20.19;94.39;95219.41;5014630;28;20182;-80
2023/07/12 02:00:55;;;;;;;4.47;3.67;;;;;;;20.06;94.89;95217.72;5014052;28;20180;-80
2023/07/12 02:03:21;;;;;;;5.25;4.30;;;;;;;20.21;94.80;95211.28;5013825;28;20202;-80
2023/07/12 02:05:46;;;;;;;6.00;3.72;;;;;;;20.21;93.90;95213.94;5012641;28;20207;-80
2023/07/12 02:08:12;;;;;;;5.47;4.00;;;;;;;20.15;94.83;95204.25;5003792;28;20206;-80
2023/07/12 02:10:37;;;;;;;4.40;3.97;;;;;;;20.18;94.44;95194.09;5013416;28;20206;-81
2023/07/12 02:13:03;;;;;;;8.18;3.85;;;;;;;20.22;94.41;95189.19;5013560;28;20191;-81
2023/07/12 02:15:29;;;;;;;10.15;3.90;;;;;;;20.25;94.24;95186.94;5013460;28;20322;-81
2023/07/12 02:17:54;;;;;;;5.15;3.85;;;;;;;20.19;94.25;95182.50;5012981;28;20193;-80
2023/07/12 02:20:19;;;;;;;7.00;4.05;;;;;;;20.21;93.85;95184.94;4997619;28;21116;-80
2023/07/12 02:22:46;;;;;;;8.63;4.28;;;;;;;20.18;94.12;95180.91;5013535;28;20626;-81
2023/07/12 02:25:12;;;;;;;9.20;3.92;;;;;;;20.19;94.02;95186.97;5011480;28;20218;-80
2023/07/12 02:27:38;;;;;;;5.72;3.97;;;;;;;20.19;94.21;95181.72;5020265;28;20221;-81
2023/07/12 02:30:09;;;;;;;6.50;3.55;;;;;;;20.13;94.54;95196.53;5013830;28;20310;-80
2023/07/12 02:32:34;;;;;;;7.05;3.70;;;;;;;20.15;94.32;95202.44;5012964;28;20550;-80
2023/07/12 02:35:00;;;;;;;6.70;3.85;;;;;;;20.13;94.23;95187.84;5012902;28;20183;-80
2023/07/12 02:37:25;;;;;;;6.32;4.03;;;;;;;20.02;94.20;95189.34;4995585;28;20286;-81
2023/07/12 02:39:50;;;;;;;7.38;3.75;;;;;;;20.01;95.24;95190.38;4997009;28;20183;-79
2023/07/12 02:42:16;;;;;;;8.38;4.15;;;;;;;20.01;94.48;95193.00;5014235;28;20277;-81
2023/07/12 02:44:41;;;;;;;7.28;3.50;;;;;;;19.99;94.71;95182.69;5013147;28;20183;-81
2023/07/12 02:47:09;;;;;;;6.28;4.07;;;;;;;19.97;95.00;95179.47;5013633;28;20211;-80
2023/07/12 02:49:35;;;;;;;5.53;3.90;;;;;;;20.02;94.63;95181.44;5013891;28;20262;-81
2023/07/12 02:52:00;;;;;;;8.85;4.38;;;;;;;20.04;94.94;95174.91;4996956;28;20198;-81
2023/07/12 02:54:26;;;;;;;4.55;3.80;;;;;;;19.98;95.27;95177.63;5013091;28;20652;-81
2023/07/12 02:56:51;;;;;;;7.43;4.50;;;;;;;19.87;95.57;95168.56;4997199;28;20203;-78
2023/07/12 02:59:16;;;;;;;5.88;3.70;;;;;;;19.91;95.32;95172.41;5014122;28;20270;-79
2023/07/12 03:01:42;;;;;;;6.15;4.72;;;;;;;19.86;96.03;95181.97;5013869;28;20233;-81
2023/07/12 03:04:07;;;;;;;7.95;4.40;;;;;;;19.84;96.30;95184.81;5002020;28;20190;-81
2023/07/12 03:06:32;;;;;;;6.50;4.40;;;;;;;19.85;95.71;95178.53;5001032;28;20251;-81
2023/07/12 03:08:58;;;;;;;6.38;4.28;;;;;;;19.72;96.64;95179.44;5018556;28;20692;-80
2023/07/12 03:11:23;;;;;;;8.98;3.97;;;;;;;19.67;97.38;95179.25;5015787;28;20179;-81
2023/07/12 03:13:51;;;;;;;7.45;3.88;;;;;;;19.61;97.91;95181.91;5012924;28;20608;-80
2023/07/12 03:16:17;;;;;;;4.30;3.75;;;;;;;19.65;97.87;95191.03;4996804;28;20265;-80
2023/07/12 03:18:42;;;;;;;6.10;4.30;;;;;;;19.67;97.81;95181.09;5012538;28;20191;-82
2023/07/12 03:21:08;;;;;;;7.60;4.53;;;;;;;19.59;98.41;95171.59;5013017;28;20269;-80
2023/07/12 03:23:35;;;;;;;7.10;4.45;;;;;;;19.56;98.66;95177.31;5013350;28;20206;-81
2023/07/12 03:26:01;;;;;;;8.95;4.30;;;;;;;19.56;98.78;95184.38;5013503;28;20260;-80
2023/07/12 03:28:26;;;;;;;4.78;3.88;;;;;;;19.56;98.05;95179.09;5013092;28;20285;-80
2023/07/12 03:31:03;;;;;;;6.63;4.45;;;;;;;19.67;97.75;95184.53;4995342;28;20699;-79
2023/07/12 03:33:29;;;;;;;9.95;4.50;;;;;;;19.70;97.13;95194.66;5012483;28;20187;-81
2023/07/12 03:35:55;;;;;;;6.85;4.35;;;;;;;19.78;96.93;95202.28;5012591;28;20284;-80
2023/07/12 03:38:24;;;;;;;5.63;4.85;;;;;;;19.66;97.33;95205.81;5014638;28;20183;-81
2023/07/12 03:40:51;;;;;;;6.40;4.22;;;;;;;19.83;96.85;95212.19;5011106;28;20198;-79
2023/07/12 03:43:16;;;;;;;7.18;4.43;;;;;;;19.74;96.64;95206.38;5013089;28;20183;-81
2023/07/12 03:45:43;;;;;;;6.03;4.50;;;;;;;19.76;96.38;95235.13;4995930;28;20580;-80
2023/07/12 03:48:08;;;;;;;6.93;4.72;;;;;;;19.86;95.68;95246.00;4997416;28;20671;-79
2023/07/12 03:50:33;;;;;;;6.75;4.68;;;;;;;19.99;94.43;95255.66;5013315;28;20187;-79
2023/07/12 03:52:59;;;;;;;8.20;4.32;;;;;;;20.01;94.46;95246.53;5014928;28;20223;-80
2023/07/12 03:55:24;;;;;;;6.28;4.85;;;;;;;19.97;94.32;95242.72;5011836;28;20191;-81
2023/07/12 03:57:49;;;;;;;6.78;4.32;;;;;;;20.03;94.26;95230.50;5013732;28;20266;-79
2023/07/12 04:00:15;;;;;;;8.43;4.25;;;;;;;19.93;94.22;95228.31;5011830;28;20744;-80
2023/07/12 04:02:40;;;;;;;6.68;4.80;;;;;;;19.92;95.07;95228.56;5014329;28;20183;-79
2023/07/12 04:05:06;;;;;;;7.55;4.90;;;;;;;20.08;93.31;95233.31;5011864;28;20558;-78
2023/07/12 04:07:31;;;;;;;8.18;5.22;;;;;;;20.00;93.67;95237.00;5012807;28;20241;-77
2023/07/12 04:09:57;;;;;;;7.25;5.75;;;;;;;20.15;93.45;95244.63;5012091;28;20206;-79
2023/07/12 04:12:22;;;;;;;7.13;4.50;;;;;;;20.13;92.86;95251.09;4995709;28;20683;-80
2023/07/12 04:14:48;;;;;;;10.75;5.22;;;;;;;20.26;92.73;95267.63;5010903;28;20183;-79
2023/07/12 04:17:14;;;;;;;8.45;5.20;;;;;;;20.53;90.83;95257.72;5011179;28;20207;-80
2023/07/12 04:19:39;;;;;;;7.72;6.28;;;;;;;20.55;90.66;95265.41;5012000;28;20210;-80
2023/07/12 04:22:04;;;;;;;8.05;5.40;;;;;;;20.84;88.38;95269.19;5011297;28;20183;-80
2023/07/12 04:24:30;;;;;;;7.68;5.53;;;;;;;20.98;88.57;95283.88;5011524;28;20195;-80
2023/07/12 04:26:57;;;;;;;8.18;4.70;;;;;;;20.95;88.39;95281.69;5012900;28;20211;-80
2023/07/12 04:29:22;;;;;;;6.70;5.05;;;;;;;21.23;86.16;95288.31;5011547;28;20207;-79
2023/07/12 04:31:48;;;;;;;8.40;4.88;;;;;;;21.99;83.82;95282.50;5010798;28;20330;-79
2023/07/12 04:34:13;;;;;;;7.65;4.97;;;;;;;23.12;77.86;95289.50;4994882;28;20194;-79
2023/07/12 04:36:38;;;;;;;6.43;5.25;;;;;;;22.48;77.24;95291.97;4995385;28;20199;-80
2023/07/12 04:39:04;;;;;;;6.50;5.10;;;;;;;22.32;77.60;95288.16;5011796;28;20183;-78
2023/07/12 04:41:29;;;;;;;10.60;5.63;;;;;;;21.94;78.84;95296.41;5011537;28;20219;-80
2023/07/12 04:43:54;;;;;;;7.43;5.60;;;;;;;21.83;78.97;95305.09;5012732;28;20210;-82
2023/07/12 04:46:23;;;;;;;5.85;4.78;;;;;;;22.26;76.30;95304.09;5013224;28;20210;-83
2023/07/12 04:48:48;;;;;;;7.65;5.45;;;;;;;22.32;76.37;95304.00;5010668;28;20221;-81
2023/07/12 04:51:13;;;;;;;13.82;5.68;;;;;;;22.09;77.83;95301.31;4998184;28;20281;-81
2023/07/12 04:53:39;;;;;;;7.78;5.45;;;;;;;21.80;77.76;95294.94;5013794;28;20186;-82
2023/07/12 04:56:04;;;;;;;6.70;5.80;;;;;;;21.53;79.08;95285.75;4996183;28;20199;-81
2023/07/12 04:58:29;;;;;;;9.85;5.20;;;;;;;22.03;78.72;95286.31;5011662;28;20186;-82
2023/07/12 05:00:58;;;;;;;10.60;5.50;;;;;;;21.81;79.58;95288.63;4996806;28;20251;-82
2023/07/12 05:03:24;;;;;;;6.75;5.00;;;;;;;21.77;79.77;95300.69;4998562;28;20183;-82
2023/07/12 05:05:49;;;;;;;9.80;5.57;;;;;;;21.65;79.70;95289.28;5013191;28;20222;-81
2023/07/12 05:08:16;;;;;;;6.63;5.07;;;;;;;21.66;79.58;95294.34;5013848;28;20241;-81
2023/07/12 05:10:41;;;;;;;7.50;5.45;;;;;;;21.87;79.04;95292.22;4997314;28;20195;-82
2023/07/12 05:13:06;;;;;;;6.90;5.40;;;;;;;21.76;78.51;95296.44;5013768;28;20179;-82
2023/07/12 05:15:32;;;;;;;9.32;5.03;;;;;;;21.95;78.32;95307.78;5012334;28;20207;-81
2023/07/12 05:17:57;;;;;;;8.18;5.15;;;;;;;22.08;77.17;95298.88;5012465;28;20191;-84
2023/07/12 05:20:22;;;;;;;6.57;5.70;;;;;;;21.85;78.79;95303.03;5011415;28;20657;-84
2023/07/12 05:22:48;;;;;;;8.68;5.30;;;;;;;21.95;78.56;95302.50;5012192;28;20185;-82
2023/07/12 05:25:14;;;;;;;4.97;4.47;;;;;;;21.84;77.19;95296.13;4995339;28;20209;-83
2023/07/12 05:27:39;;;;;;;7.53;4.78;;;;;;;21.82;77.84;95300.84;4995807;28;20187;-76
2023/07/12 05:30:05;;;;;;;7.90;5.13;;;;;;;21.90;75.74;95294.41;5012813;28;20306;-83
2023/07/12 05:32:31;;;;;;;8.25;4.03;;;;;;;22.10;73.78;95281.78;5013537;28;20219;-83
2023/07/12 05:34:56;;;;;;;8.20;4.50;;;;;;;22.12;72.02;95298.22;5011925;28;20211;-82
2023/07/12 05:37:22;;;;;;;8.02;3.97;;;;;;;22.28;71.13;95300.22;5012895;28;20273;-82
2023/07/12 05:39:47;;;;;;;7.32;4.10;;;;;;;22.45;70.63;95302.22;5012434;28;20179;-83
2023/07/12 05:42:13;;;;;;;6.55;4.30;;;;;;;22.42;69.91;95294.72;5012627;28;20195;-82
2023/07/12 05:44:38;;;;;;;7.80;4.30;;;;;;;22.47;70.04;95295.66;4993479;28;20238;-83
2023/07/12 05:47:04;;;;;;;6.82;3.97;;;;;;;22.36;69.80;95300.94;5012958;28;20211;-84
2023/07/12 05:49:29;;;;;;;6.38;3.67;;;;;;;22.46;68.53;95288.75;5013400;28;20219;-82
2023/07/12 05:51:54;;;;;;;5.13;4.15;;;;;;;22.31;68.40;95289.19;4992881;28;20607;-81
2023/07/12 05:54:20;;;;;;;6.63;3.65;;;;;;;22.28;67.17;95287.00;4998302;28;20252;-83
2023/07/12 05:56:46;;;;;;;10.02;3.90;;;;;;;22.61;66.62;95291.75;4998007;28;20226;-83
2023/07/12 05:59:11;;;;;;;5.82;3.50;;;;;;;23.00;64.21;95283.41;4992534;28;20188;-82
2023/07/12 06:01:36;;;;;;;6.68;3.83;;;;;;;24.05;60.63;95293.78;5007370;28;20580;-84
2023/07/12 06:04:02;;;;;;;4.53;3.35;;;;;;;24.10;60.36;95293.03;5012727;28;20521;-82
2023/07/12 06:06:27;;;;;;;4.18;3.45;;;;;;;23.85;60.20;95288.88;4996047;28;20215;-83
2023/07/12 06:08:53;;;;;;;5.90;3.30;;;;;;;23.79;59.99;95286.38;5014487;28;20203;-83
2023/07/12 06:11:18;;;;;;;6.95;3.00;;;;;;;24.01;59.11;95296.06;4995698;28;20189;-84
2023/07/12 06:14:04;;;;;;;4.45;3.40;;;;;;;23.73;59.55;95298.72;5013365;28;20198;-83
2023/07/12 06:16:37;;;;;;;6.22;3.55;;;;;;;23.65;59.60;95291.94;4996035;28;20220;-83
2023/07/12 06:19:08;;;;;;;5.03;3.22;;;;;;;24.27;57.11;95300.00;4993584;28;20179;-83
2023/07/12 06:21:37;;;;;;;6.57;3.50;;;;;;;24.38;57.46;95308.97;4996756;28;20198;-81
2023/07/12 06:24:03;;;;;;;6.88;3.33;;;;;;;24.35;57.34;95295.38;5012513;28;20203;-82
2023/07/12 06:26:29;;;;;;;5.35;3.10;;;;;;;23.71;58.16;95314.06;4998126;28;20694;-84
2023/07/12 06:28:54;;;;;;;4.07;3.67;;;;;;;23.87;58.73;95308.03;5011854;28;20237;-82
2023/07/12 06:31:19;;;;;;;6.72;3.25;;;;;;;23.52;59.29;95315.25;5009399;28;20198;-84
2023/07/12 06:33:45;;;;;;;6.90;3.22;;;;;;;23.39;59.82;95303.03;5017582;28;20179;-84
2023/07/12 06:36:10;;;;;;;4.47;2.90;;;;;;;23.50;59.99;95319.94;5000399;28;20704;-84
2023/07/12 06:38:35;;;;;;;6.68;3.85;;;;;;;23.93;58.18;95320.31;4996391;28;20229;-84
2023/07/12 06:41:01;;;;;;;5.00;2.90;;;;;;;23.98;57.67;95336.34;5015378;28;20187;-83
2023/07/12 06:43:26;;;;;;;6.05;2.90;;;;;;;24.70;56.29;95327.81;4999473;28;20197;-82
2023/07/12 06:45:51;;;;;;;3.72;3.03;;;;;;;25.27;53.63;95337.50;4999252;28;20203;-84
2023/07/12 06:48:17;;;;;;;7.10;3.17;;;;;;;25.24;53.42;95344.06;4998760;28;20274;-83
2023/07/12 06:50:42;;;;;;;5.75;2.92;;;;;;;25.71;52.22;95330.38;5016171;28;20222;-83
2023/07/12 06:53:07;;;;;;;3.92;2.92;;;;;;;26.77;49.15;95340.56;4994023;28;20187;-84
2023/07/12 06:55:34;;;;;;;5.97;2.97;;;;;;;26.72;48.27;95325.31;5012317;28;20203;-81
2023/07/12 06:58:00;;;;;;;5.57;2.72;;;;;;;27.76;46.09;95337.22;4999189;28;20190;-84
2023/07/12 07:00:25;;;;;;;6.70;3.20;;;;;;;27.81;46.49;95345.22;4995819;28;20179;-83
2023/07/12 07:02:50;;;;;;;5.47;2.90;;;;;;;28.00;45.33;95344.78;5013656;28;20657;-81
2023/07/12 07:05:16;;;;;;;7.03;3.10;;;;;;;29.25;42.59;95350.59;4997688;28;20203;-81
2023/07/12 07:07:41;;;;;;;5.43;3.17;;;;;;;29.60;41.46;95352.44;5009799;28;20199;-82
2023/07/12 07:10:07;;;;;;;5.35;2.83;;;;;;;29.61;41.35;95356.69;5012204;28;20349;-77
2023/07/12 07:12:32;;;;;;;4.40;2.50;;;;;;;28.89;41.57;95351.63;5012135;28;21093;-77
2023/07/12 07:14:57;;;;;;;4.88;3.03;;;;;;;29.65;40.84;95364.97;5012059;28;20211;-77
2023/07/12 07:17:23;;;;;;;4.25;2.50;;;;;;;30.08;40.28;95370.75;5009534;28;20286;-81
2023/07/12 07:19:48;;;;;;;4.18;2.67;;;;;;;30.81;38.64;95378.13;4992866;28;20716;-81
2023/07/12 07:22:13;;;;;;;6.18;3.00;;;;;;;30.66;38.86;95390.56;5010265;28;20191;-80
2023/07/12 07:24:39;;;;;;;4.70;2.70;;;;;;;30.70;37.74;95391.59;5010848;28;20564;-80
2023/07/12 07:27:04;;;;;;;5.45;2.85;;;;;;;30.55;38.83;95398.88;5011668;28;20205;-80
2023/07/12 07:29:30;;;;;;;7.35;2.58;;;;;;;30.78;37.83;95397.44;5011094;28;20218;-81
2023/07/12 07:31:55;;;;;;;6.20;2.75;;;;;;;30.49;38.05;95400.81;5009749;28;20685;-82
2023/07/12 07:34:20;;;;;;;2.72;2.08;;;;;;;31.69;37.15;95407.41;4993867;28;20679;-80
2023/07/12 07:36:46;;;;;;;8.65;2.42;;;;;;;31.24;37.34;95409.44;5014795;28;20304;-81
2023/07/12 07:39:11;;;;;;;3.78;2.42;;;;;;;30.83;38.44;95414.28;5010413;28;20668;-80
2023/07/12 07:41:36;;;;;;;4.55;2.78;;;;;;;31.29;36.38;95409.41;5009776;28;20218;-80
2023/07/12 07:44:02;;;;;;;6.85;3.13;;;;;;;31.15;37.28;95416.47;5010334;28;20599;-83
2023/07/12 07:46:27;;;;;;;6.22;2.80;;;;;;;30.59;38.05;95410.66;4994972;28;20211;-80
2023/07/12 07:48:53;;;;;;;4.40;2.92;;;;;;;31.49;36.86;95419.16;4996437;28;20253;-81
2023/07/12 07:51:18;;;;;;;5.55;2.85;;;;;;;31.06;37.05;95412.78;5010904;28;20668;-81
2023/07/12 07:53:43;;;;;;;4.38;2.42;;;;;;;30.48;38.31;95415.28;5009475;28;20275;-80
2023/07/12 07:56:09;;;;;;;5.05;3.00;;;;;;;29.39;40.30;95423.03;5011927;28;20268;-81
2023/07/12 07:58:34;;;;;;;6.32;2.85;;;;;;;28.73;41.03;95428.34;4993586;28;20191;-81
2023/07/12 08:01:00;;;;;;;8.57;2.75;;;;;;;28.43;41.62;95419.16;4995252;28;20682;-81
2023/07/12 08:03:25;;;;;;;6.50;3.45;;;;;;;28.20;42.19;95414.25;5009175;28;20187;-81
2023/07/12 08:05:50;;;;;;;4.25;2.70;;;;;;;28.49;41.19;95414.66;4990735;28;20583;-81
2023/07/12 08:08:16;;;;;;;4.88;2.65;;;;;;;28.41;43.30;95415.97;5010318;28;20191;-80
2023/07/12 08:10:41;;;;;;;6.35;3.17;;;;;;;28.23;45.05;95429.75;5004027;28;20660;-80
2023/07/12 08:13:07;;;;;;;4.05;2.63;;;;;;;28.03;43.65;95435.00;5010383;28;20191;-82
2023/07/12 08:15:33;;;;;;;4.80;3.00;;;;;;;27.72;43.98;95424.16;5006445;28;20211;-80
2023/07/12 08:17:59;;;;;;;5.47;2.95;;;;;;;27.07;45.59;95438.59;5010081;28;20195;-80
2023/07/12 08:20:25;;;;;;;3.33;2.90;;;;;;;26.51;45.16;95441.50;4992957;28;20184;-81
2023/07/12 08:22:51;;;;;;;3.85;2.72;;;;;;;26.54;45.03;95445.53;5009352;28;20195;-80
2023/07/12 08:25:17;;;;;;;3.45;2.67;;;;;;;26.41;44.97;95443.22;4992062;28;20215;-81
2023/07/12 08:27:42;;;;;;;4.32;2.78;;;;;;;26.44;45.78;95446.22;5010227;28;20202;-80
2023/07/12 08:30:08;;;;;;;4.70;3.17;;;;;;;25.86;46.32;95444.13;5008253;28;20264;-80
2023/07/12 08:32:34;;;;;;;3.88;2.67;;;;;;;26.22;46.58;95448.84;5009114;28;20199;-79
2023/07/12 08:35:00;;;;;;;6.30;3.00;;;;;;;26.24;47.19;95448.63;4990194;28;20381;-80
2023/07/12 08:37:26;;;;;;;6.43;2.75;;;;;;;26.50;47.21;95455.03;4990781;28;20242;-81
2023/07/12 08:39:52;;;;;;;4.38;3.25;;;;;;;26.20;47.33;95452.81;4994155;28;20211;-80
2023/07/12 08:42:29;;;;;;;3.67;2.58;;;;;;;26.24;46.30;95454.75;5009444;28;20669;-81
2023/07/12 08:44:57;;;;;;;5.35;2.63;;;;;;;26.08;46.33;95460.13;4990312;28;20206;-80
2023/07/12 08:47:30;;;;;;;5.50;2.80;;;;;;;26.30;47.01;95465.44;5004019;28;20584;-81
2023/07/12 08:49:56;;;;;;;6.07;3.17;;;;;;;26.48;46.39;95463.28;5008760;28;20895;-81
2023/07/12 08:52:27;;;;;;;5.03;2.70;;;;;;;26.27;47.28;95469.41;4992941;28;20191;-81
2023/07/12 08:54:53;;;;;;;6.85;2.78;;;;;;;25.39;45.95;95466.56;4983208;28;20179;-80
2023/07/12 08:57:24;;;;;;;5.88;2.50;;;;;;;25.76;47.82;95473.25;5008656;28;20294;-81
2023/07/12 09:00:07;;;;;;;6.68;2.85;;;;;;;25.85;46.88;95466.47;5006429;28;20219;-81
2023/07/12 09:02:34;;;;;;;5.00;2.53;;;;;;;26.16;47.00;95463.16;4991386;28;20187;-81
2023/07/12 09:05:09;;;;;;;3.25;2.35;;;;;;;25.96;46.96;95476.19;5008943;28;20191;-81
2023/07/12 09:07:35;;;;;;;5.07;2.60;;;;;;;25.77;47.14;95472.19;5010343;28;20695;-81
2023/07/12 09:10:01;;;;;;;6.57;2.70;;;;;;;25.71;47.04;95479.31;4990718;28;20203;-81
2023/07/12 09:12:29;;;;;;;6.72;2.53;;;;;;;25.72;47.34;95477.47;4992663;28;20183;-81
2023/07/12 09:15:00;;;;;;;5.82;2.88;;;;;;;25.95;47.41;95479.91;4994237;28;20182;-79
2023/07/12 09:17:28;;;;;;;5.20;2.70;;;;;;;25.76;45.82;95484.69;4992738;28;20226;-81
2023/07/12 09:19:54;;;;;;;5.22;2.30;;;;;;;25.54;45.08;95479.28;5011406;28;20290;-80
2023/07/12 09:22:19;;;;;;;3.03;2.40;;;;;;;25.59;46.21;95483.88;4994547;28;20712;-81
2023/07/12 09:24:53;;;;;;;5.40;2.00;;;;;;;25.56;44.50;95482.50;5006793;28;20302;-80
2023/07/12 09:27:23;;;;;;;6.07;2.75;;;;;;;26.08;44.04;95489.41;5007234;28;20222;-79
2023/07/12 09:29:49;;;;;;;3.53;1.92;;;;;;;26.02;43.20;95491.16;5009362;28;20567;-79
2023/07/12 09:32:22;;;;;;;2.50;2.30;;;;;;;26.44;42.11;95480.03;5010174;28;20183;-79
2023/07/12 09:34:48;;;;;;;7.28;2.40;;;;;;;26.62;42.28;95477.03;5011506;28;20194;-79
2023/07/12 09:37:16;;;;;;;5.65;2.03;;;;;;;26.49;42.92;95477.41;5014008;28;20226;-78
2023/07/12 09:39:52;;;;;;;8.98;3.08;;;;;;;26.38;43.78;95479.16;4992522;28;20189;-79
2023/07/12 09:42:17;;;;;;;4.53;2.67;;;;;;;26.48;43.99;95475.78;5013635;28;20183;-78
2023/07/12 09:44:43;;;;;;;8.15;2.90;;;;;;;26.76;44.98;95470.25;5010239;28;20183;-79
2023/07/12 09:47:21;;;;;;;7.07;3.25;;;;;;;27.02;43.95;95462.50;5012453;28;20225;-78
2023/07/12 09:49:51;;;;;;;4.85;3.17;;;;;;;27.24;44.71;95465.94;5008408;28;20203;-79
2023/07/12 09:52:27;;;;;;;4.63;3.03;;;;;;;27.17;44.30;95462.69;5011324;28;20278;-79
2023/07/12 09:55:03;;;;;;;6.28;3.10;;;;;;;28.09;43.33;95460.66;5010407;28;20202;-80
2023/07/12 09:57:41;;;;;;;5.38;3.10;;;;;;;28.12;43.33;95460.94;5013522;28;20218;-79
2023/07/12 10:00:26;;;;;;;3.60;2.75;;;;;;;28.25;42.85;95453.50;4989812;28;20183;-79
2023/07/12 10:02:51;;;;;;;7.50;3.00;;;;;;;28.98;41.53;95457.81;4996069;28;20183;-78
2023/07/12 10:05:21;;;;;;;9.55;3.20;;;;;;;28.67;42.20;95456.09;5011586;28;20257;-79
2023/07/12 10:07:52;;;;;;;5.88;3.42;;;;;;;29.08;41.09;95451.66;5009381;28;20188;-79
2023/07/12 10:10:39;;;;;;;8.30;3.28;;;;;;;29.20;40.58;95459.41;5009480;28;20218;-79
2023/07/12 10:13:43;;;;;;;5.13;3.13;;;;;;;28.52;41.57;95458.72;5012958;28;20191;-79
2023/07/12 10:16:18;;;;;;;4.78;3.30;;;;;;;29.34;41.53;95460.50;4993622;28;20245;-79
2023/07/12 10:18:44;;;;;;;7.85;3.22;;;;;;;29.48;39.88;95450.03;5012622;28;20198;-79
2023/07/12 10:21:14;;;;;;;4.78;3.55;;;;;;;28.64;40.48;95446.75;5011360;28;20215;-79
2023/07/12 10:23:47;;;;;;;7.53;3.58;;;;;;;29.21;40.83;95447.66;4988700;28;20218;-80
2023/07/12 10:26:14;;;;;;;5.95;3.70;;;;;;;29.52;40.65;95451.16;5009684;28;20203;-79
2023/07/12 10:28:52;;;;;;;6.32;3.25;;;;;;;28.88;40.58;95441.69;5012671;28;20252;-80
2023/07/12 10:31:20;;;;;;;4.07;3.67;;;;;;;29.54;39.84;95449.81;5024780;28;20186;-79
2023/07/12 10:33:48;;;;;;;6.18;4.05;;;;;;;29.51;40.88;95450.38;5011623;28;20191;-79
2023/07/12 10:36:22;;;;;;;4.97;3.65;;;;;;;29.60;40.72;95447.94;5008070;28;20214;-78
2023/07/12 10:38:48;;;;;;;4.40;3.30;;;;;;;29.34;40.09;95447.13;5012548;28;20245;-79
2023/07/12 10:41:20;;;;;;;4.18;3.53;;;;;;;28.66;41.03;95439.25;5013046;28;20190;-79
2023/07/12 10:43:47;;;;;;;7.90;3.92;;;;;;;29.02;41.61;95448.16;5010111;28;20197;-79
2023/07/12 10:46:37;;;;;;;5.22;3.85;;;;;;;28.48;43.42;95437.88;4994786;28;20214;-79
2023/07/12 10:49:04;;;;;;;5.47;3.70;;;;;;;28.72;42.34;95448.09;5028086;28;20297;-78
2023/07/12 10:51:35;;;;;;;5.68;3.85;;;;;;;28.81;42.06;95432.34;5012517;28;20668;-79
2023/07/12 10:54:00;;;;;;;7.55;3.50;;;;;;;28.81;42.24;95441.19;5012704;28;20198;-78
2023/07/12 10:56:51;;;;;;;6.43;3.88;;;;;;;28.08;42.74;95435.03;4996624;28;20207;-79
2023/07/12 10:59:32;;;;;;;6.13;3.85;;;;;;;28.09;44.03;95436.63;5005115;28;20230;-78
2023/07/12 11:02:03;;;;;;;6.60;3.78;;;;;;;28.52;43.43;95432.00;5011194;28;20195;-79
2023/07/12 11:04:31;;;;;;;7.70;3.75;;;;;;;28.61;42.60;95441.13;5011717;28;20187;-79
2023/07/12 11:07:12;;;;;;;7.53;3.88;;;;;;;28.57;42.46;95424.03;5012951;28;20294;-78
2023/07/12 11:09:44;;;;;;;4.93;4.10;;;;;;;29.24;40.49;95423.03;5013431;28;20242;-79
2023/07/12 11:12:13;;;;;;;6.15;3.90;;;;;;;29.59;40.21;95433.72;5013729;28;20198;-79
2023/07/12 11:14:38;;;;;;;6.00;4.13;;;;;;;29.27;41.37;95426.00;5008313;28;20188;-79
2023/07/12 11:17:06;;;;;;;5.00;4.47;;;;;;;29.63;39.98;95428.66;5014015;28;20206;-80
2023/07/12 11:19:42;;;;;;;5.55;4.20;;;;;;;29.85;38.91;95431.00;5003778;28;20195;-81
2023/07/12 11:22:22;;;;;;;4.70;3.90;;;;;;;30.11;38.69;95419.19;5011518;28;20195;-81
2023/07/12 11:24:52;;;;;;;6.00;3.55;;;;;;;30.42;38.64;95411.03;5001444;28;20183;-81
2023/07/12 11:27:42;;;;;;;5.25;4.00;;;;;;;30.59;37.48;95426.75;4994159;28;20199;-81
2023/07/12 11:30:28;;;;;;;4.70;3.75;;;;;;;29.87;39.34;95420.84;5011614;28;20213;-82
2023/07/12 11:33:18;;;;;;;6.50;4.05;;;;;;;30.15;40.37;95424.81;5008416;28;20191;-80
2023/07/12 11:35:47;;;;;;;4.75;4.28;;;;;;;29.98;38.59;95421.63;4990717;28;20595;-82